Time;durP1;ratioP1;P1;durP2;ratioP2;P2;SDS_P1;SDS_P2;PMS_P1;PMS_P2;Temp;Humidity;BMP_temperature;BMP_pressure;BME280_temperature;BME280_humidity;BME280_pressure;Samples;Min_cycle;Max_cycle;Signal;HPM_P1;HPM_P2
2022/05/13 00:00:07;;;;;;;5.70;2.53;;;12.10;99.90;;;;;;5118843;27;20479;-61
2022/05/13 00:02:32;;;;;;;6.20;2.35;;;12.10;99.90;;;;;;5123108;27;20036;-61
2022/05/13 00:04:58;;;;;;;7.85;2.55;;;12.00;99.90;;;;;;5121954;27;21079;-61
2022/05/13 00:07:24;;;;;;;5.95;2.20;;;12.00;99.90;;;;;;5118596;27;20502;-61
2022/05/13 00:10:05;;;;;;;5.60;2.33;;;12.00;99.90;;;;;;5121815;27;20444;-61
2022/05/13 00:12:34;;;;;;;4.38;2.20;;;12.00;99.90;;;;;;5123353;27;20058;-61
2022/05/13 00:15:03;;;;;;;5.50;2.03;;;12.10;99.90;;;;;;5122212;27;20075;-60
2022/05/13 00:17:29;;;;;;;5.50;2.15;;;12.00;99.90;;;;;;5105811;27;20058;-61
2022/05/13 00:19:55;;;;;;;6.53;2.40;;;12.00;99.90;;;;;;5123837;27;20043;-61
2022/05/13 00:22:21;;;;;;;5.05;2.65;;;12.00;99.90;;;;;;5103898;28;20046;-61
2022/05/13 00:24:47;;;;;;;5.45;2.38;;;11.90;99.90;;;;;;5123482;27;20467;-61
2022/05/13 00:27:13;;;;;;;7.60;2.22;;;11.80;99.90;;;;;;5105786;27;20032;-61
2022/05/13 00:29:39;;;;;;;7.53;2.22;;;11.80;99.90;;;;;;5121881;27;20039;-61
2022/05/13 00:32:05;;;;;;;6.53;2.10;;;11.70;99.90;;;;;;5119100;27;20031;-61
2022/05/13 00:34:32;;;;;;;6.45;2.22;;;11.70;99.90;;;;;;5122600;27;20092;-61
2022/05/13 00:36:58;;;;;;;5.80;2.03;;;11.70;99.90;;;;;;5119182;27;20119;-61
2022/05/13 00:39:24;;;;;;;5.20;1.95;;;11.70;99.90;;;;;;5121401;27;20118;-61
2022/05/13 00:41:49;;;;;;;7.93;2.20;;;11.60;99.90;;;;;;5120771;27;20421;-62
2022/05/13 00:44:15;;;;;;;7.18;2.40;;;11.60;99.90;;;;;;5120638;27;20045;-62
2022/05/13 00:46:41;;;;;;;8.13;2.17;;;11.60;99.90;;;;;;5121176;27;20119;-61
2022/05/13 00:49:10;;;;;;;5.05;1.92;;;11.60;99.90;;;;;;5120803;27;20058;-60
2022/05/13 00:51:39;;;;;;;6.57;2.40;;;11.70;99.90;;;;;;5120005;27;20462;-62
2022/05/13 00:54:07;;;;;;;6.57;2.38;;;11.70;99.90;;;;;;5118301;27;20047;-61
2022/05/13 00:56:34;;;;;;;6.75;2.40;;;11.60;99.90;;;;;;5121640;27;20420;-61
2022/05/13 00:59:02;;;;;;;7.78;2.65;;;11.60;99.90;;;;;;5121355;27;20081;-61
2022/05/13 01:01:29;;;;;;;5.97;2.25;;;11.50;99.90;;;;;;5123170;27;20039;-61
2022/05/13 01:04:02;;;;;;;8.60;2.63;;;11.60;99.90;;;;;;5102552;27;20123;-62
2022/05/13 01:06:28;;;;;;;8.82;2.45;;;11.60;99.90;;;;;;5119154;27;20067;-61
2022/05/13 01:08:56;;;;;;;8.15;2.55;;;11.50;99.90;;;;;;5122036;27;20148;-61
2022/05/13 01:11:28;;;;;;;7.07;2.90;;;11.50;99.90;;;;;;5120127;28;20478;-62
2022/05/13 01:14:06;;;;;;;5.40;2.20;;;11.50;99.90;;;;;;5122810;27;20035;-62
2022/05/13 01:18:05;;;;;;;6.70;2.50;;;11.50;99.90;;;;;;5121100;27;20388;-61
2022/05/13 01:19:18;;;;;;;6.80;2.17;;;11.40;99.90;;;;;;5122236;28;20050;-61
2022/05/13 01:21:48;;;;;;;7.35;2.45;;;11.50;99.90;;;;;;5117101;28;20420;-61
2022/05/13 01:24:19;;;;;;;5.93;2.58;;;11.60;99.90;;;;;;5121443;28;20091;-61
2022/05/13 01:26:45;;;;;;;6.88;2.53;;;11.60;99.90;;;;;;5118090;28;20035;-62
2022/05/13 01:29:10;;;;;;;7.38;2.42;;;11.60;99.90;;;;;;5121863;28;20036;-62
2022/05/13 01:31:40;;;;;;;9.90;2.60;;;11.60;99.90;;;;;;5118669;28;20027;-62
2022/05/13 01:34:10;;;;;;;6.75;2.72;;;11.60;99.90;;;;;;5117229;28;20042;-61
2022/05/13 01:36:39;;;;;;;6.88;2.85;;;11.50;99.90;;;;;;5122800;28;20348;-62
2022/05/13 01:39:06;;;;;;;7.35;2.55;;;11.50;99.90;;;;;;5100288;28;20079;-61
2022/05/13 01:41:32;;;;;;;5.53;2.65;;;11.50;99.90;;;;;;5118529;28;20106;-61
2022/05/13 01:43:58;;;;;;;10.65;2.72;;;11.40;99.90;;;;;;5105498;28;20471;-62
2022/05/13 01:46:24;;;;;;;6.88;2.33;;;11.50;99.90;;;;;;5120879;28;20046;-62
2022/05/13 01:48:51;;;;;;;5.60;2.50;;;11.50;99.90;;;;;;5122567;28;20035;-62
2022/05/13 01:51:17;;;;;;;7.03;2.83;;;11.40;99.90;;;;;;5098714;28;20040;-63
2022/05/13 01:53:43;;;;;;;7.68;2.70;;;11.40;99.90;;;;;;5121139;28;20027;-62
2022/05/13 01:56:09;;;;;;;8.27;2.65;;;11.40;99.90;;;;;;5103827;28;20223;-62
2022/05/13 01:58:35;;;;;;;5.93;2.83;;;11.40;99.90;;;;;;5122768;28;20110;-61
2022/05/13 02:01:04;;;;;;;7.10;2.63;;;11.40;99.90;;;;;;5120329;28;20049;-61
2022/05/13 02:03:45;;;;;;;7.63;2.80;;;11.40;99.90;;;;;;5120117;28;20144;-62
2022/05/13 02:06:29;;;;;;;7.97;2.67;;;11.40;99.90;;;;;;5117224;28;20470;-61
2022/05/13 02:08:57;;;;;;;5.07;2.43;;;11.40;99.90;;;;;;5118856;28;20130;-61
2022/05/13 02:11:25;;;;;;;6.13;2.80;;;11.40;99.90;;;;;;5101657;28;20043;-62
2022/05/13 02:13:52;;;;;;;7.95;2.53;;;11.40;99.90;;;;;;5122023;28;20035;-61
2022/05/13 02:16:19;;;;;;;5.53;2.60;;;11.40;99.90;;;;;;5120805;28;20057;-61
2022/05/13 02:18:45;;;;;;;6.30;2.30;;;11.40;99.90;;;;;;5099555;28;20031;-63
2022/05/13 02:21:11;;;;;;;7.72;2.70;;;11.50;99.90;;;;;;5116328;28;20187;-60
2022/05/13 02:23:37;;;;;;;7.05;2.65;;;11.50;99.90;;;;;;5102887;28;20099;-62
2022/05/13 02:26:06;;;;;;;10.88;2.78;;;11.50;99.90;;;;;;5122583;28;20031;-62
2022/05/13 02:28:34;;;;;;;6.35;2.65;;;11.50;99.90;;;;;;5121756;28;20120;-62
2022/05/13 02:31:00;;;;;;;11.20;2.88;;;11.50;99.90;;;;;;5117614;28;20056;-62
2022/05/13 02:33:27;;;;;;;6.97;2.80;;;11.40;99.90;;;;;;5123767;27;20027;-62
2022/05/13 02:35:52;;;;;;;6.53;2.90;;;11.50;99.90;;;;;;5124951;27;20047;-62
2022/05/13 02:38:18;;;;;;;8.02;3.10;;;11.50;99.90;;;;;;5123734;27;20039;-62
2022/05/13 02:43:29;;;;;;;8.93;2.75;;;11.40;99.90;;;;;;5121751;27;20137;-62
2022/05/13 02:45:55;;;;;;;9.38;2.88;;;11.40;99.90;;;;;;5090421;27;20111;-62
2022/05/13 02:48:21;;;;;;;8.63;2.75;;;11.40;99.90;;;;;;5124294;27;20084;-62
2022/05/13 02:50:47;;;;;;;6.60;2.88;;;11.40;99.90;;;;;;5121981;27;20447;-63
2022/05/13 02:53:13;;;;;;;10.20;3.20;;;11.40;99.90;;;;;;5125229;27;20081;-62
2022/05/13 02:55:39;;;;;;;9.65;3.17;;;11.30;99.90;;;;;;5123269;27;20046;-62
2022/05/13 02:58:05;;;;;;;10.27;2.90;;;11.50;99.90;;;;;;5125525;27;20095;-61
2022/05/13 03:00:31;;;;;;;7.80;2.85;;;11.40;99.90;;;;;;5121949;27;20043;-62
2022/05/13 03:02:57;;;;;;;9.10;3.28;;;11.40;99.90;;;;;;5122851;27;20039;-61
2022/05/13 03:05:24;;;;;;;10.55;3.10;;;11.40;99.90;;;;;;5125300;27;20378;-62
2022/05/13 03:07:50;;;;;;;6.57;2.90;;;11.40;99.90;;;;;;5122325;27;20444;-62
2022/05/13 03:10:16;;;;;;;9.73;3.00;;;11.40;99.90;;;;;;5121965;27;20437;-63
2022/05/13 03:12:42;;;;;;;6.30;2.45;;;11.40;99.90;;;;;;5104720;27;20557;-62
2022/05/13 03:15:10;;;;;;;7.50;2.90;;;11.40;99.90;;;;;;5123893;27;20027;-62
2022/05/13 03:17:36;;;;;;;12.40;3.17;;;11.30;99.90;;;;;;5124183;27;20088;-63
2022/05/13 03:20:02;;;;;;;7.28;2.83;;;11.40;99.90;;;;;;5122607;27;20068;-62
2022/05/13 03:22:28;;;;;;;13.68;3.47;;;11.40;99.90;;;;;;5120011;27;20043;-62
2022/05/13 03:24:54;;;;;;;8.82;3.03;;;11.40;99.90;;;;;;5123308;27;20035;-61
2022/05/13 03:27:19;;;;;;;9.23;2.53;;;11.40;99.90;;;;;;5125318;27;20035;-62
2022/05/13 03:29:45;;;;;;;15.93;3.15;;;11.40;99.90;;;;;;5102755;27;20064;-61
2022/05/13 03:32:11;;;;;;;9.80;2.95;;;11.40;99.90;;;;;;5121188;27;20032;-62
2022/05/13 03:34:37;;;;;;;7.72;2.75;;;11.50;99.90;;;;;;5103994;27;20039;-61
2022/05/13 03:37:04;;;;;;;11.75;3.22;;;11.50;99.90;;;;;;5123125;27;20050;-61
2022/05/13 03:39:30;;;;;;;9.95;3.28;;;11.50;99.90;;;;;;5124687;27;20081;-61
2022/05/13 03:41:56;;;;;;;10.27;3.13;;;11.50;99.90;;;;;;5121890;27;20071;-63
2022/05/13 03:44:21;;;;;;;11.55;3.30;;;11.40;99.90;;;;;;5122731;27;20067;-62
2022/05/13 03:46:47;;;;;;;9.85;2.92;;;11.40;99.90;;;;;;5106538;27;20093;-63
2022/05/13 03:49:13;;;;;;;11.60;2.97;;;11.50;99.90;;;;;;5124152;27;20039;-64
2022/05/13 03:51:39;;;;;;;11.48;3.00;;;11.40;99.90;;;;;;5119254;27;20039;-62
2022/05/13 03:54:04;;;;;;;8.35;3.00;;;11.40;99.90;;;;;;5124015;27;20081;-64
2022/05/13 03:56:30;;;;;;;10.13;3.40;;;11.40;99.90;;;;;;5123841;27;20028;-61
2022/05/13 03:58:56;;;;;;;11.48;3.63;;;11.40;99.90;;;;;;5123192;27;20070;-62
2022/05/13 04:01:22;;;;;;;12.25;3.10;;;11.40;99.90;;;;;;5121603;27;20038;-61
2022/05/13 04:03:47;;;;;;;10.80;3.22;;;11.40;99.90;;;;;;5123423;27;20036;-62
2022/05/13 04:08:59;;;;;;;14.25;3.33;;;11.40;99.90;;;;;;5121059;27;20160;-61
2022/05/13 04:11:32;;;;;;;8.38;3.13;;;11.40;99.90;;;;;;5121893;27;20422;-62
2022/05/13 04:16:43;;;;;;;;;;;11.40;99.90;;;;;;5121586;27;20503;-64
2022/05/13 04:19:10;;;;;;;12.43;3.47;;;11.50;99.90;;;;;;5082085;27;19916;-63
2022/05/13 04:21:38;;;;;;;12.55;3.50;;;11.50;99.90;;;;;;5119696;27;20390;-64
2022/05/13 04:24:07;;;;;;;10.00;3.58;;;11.50;99.90;;;;;;5124222;27;20035;-62
2022/05/13 04:26:33;;;;;;;11.68;3.72;;;11.50;99.90;;;;;;5123749;27;20039;-62
2022/05/13 04:29:00;;;;;;;11.13;3.80;;;11.50;99.90;;;;;;5122390;27;20043;-62
2022/05/13 04:31:32;;;;;;;11.43;3.80;;;11.50;99.90;;;;;;5120852;27;20363;-63
2022/05/13 04:33:58;;;;;;;15.80;4.50;;;11.50;99.90;;;;;;5124009;27;20043;-62
2022/05/13 04:36:25;;;;;;;12.43;4.07;;;11.60;99.90;;;;;;5103564;27;20036;-61
2022/05/13 04:38:52;;;;;;;16.15;3.85;;;11.60;99.90;;;;;;5123140;27;20113;-61
2022/05/13 04:44:04;;;;;;;11.82;4.38;;;11.70;99.90;;;;;;5123009;27;20039;-63
2022/05/13 04:46:31;;;;;;;12.77;4.00;;;11.70;99.90;;;;;;5087396;27;20501;-63
2022/05/13 04:48:57;;;;;;;12.55;3.78;;;11.70;99.90;;;;;;5103763;27;20423;-64
2022/05/13 04:51:23;;;;;;;9.20;3.72;;;11.70;99.90;;;;;;5103531;27;20059;-64
2022/05/13 04:53:52;;;;;;;11.23;4.38;;;11.70;99.90;;;;;;5100784;27;20499;-62
2022/05/13 04:56:19;;;;;;;13.10;4.20;;;11.80;99.90;;;;;;5121321;27;20350;-62
2022/05/13 04:58:45;;;;;;;14.00;4.10;;;11.80;99.90;;;;;;5119808;27;20076;-61
2022/05/13 05:01:11;;;;;;;14.32;4.30;;;11.80;99.90;;;;;;5115921;28;20028;-63
2022/05/13 05:03:37;;;;;;;14.20;4.10;;;11.90;99.90;;;;;;5107504;27;20081;-62
2022/05/13 05:06:04;;;;;;;16.25;3.95;;;11.90;99.90;;;;;;5116040;27;20038;-62
2022/05/13 05:08:30;;;;;;;16.40;4.88;;;11.90;99.90;;;;;;5103516;27;20473;-62
2022/05/13 05:10:57;;;;;;;16.48;4.82;;;12.00;99.90;;;;;;5095722;28;20040;-64
2022/05/13 05:13:25;;;;;;;15.70;4.22;;;12.00;99.90;;;;;;5106584;28;20046;-62
2022/05/13 05:15:51;;;;;;;12.98;4.15;;;12.10;99.90;;;;;;5115635;27;20102;-62
2022/05/13 05:18:17;;;;;;;20.15;4.50;;;12.20;99.90;;;;;;5104032;28;20539;-62
2022/05/13 05:20:45;;;;;;;18.67;4.65;;;12.20;99.90;;;;;;5118189;28;20435;-62
2022/05/13 05:23:17;;;;;;;17.33;5.00;;;12.40;99.90;;;;;;5121117;28;20400;-62
2022/05/13 05:25:44;;;;;;;19.45;5.07;;;12.50;99.90;;;;;;5120575;28;20027;-62
2022/05/13 05:28:10;;;;;;;12.18;4.13;;;12.90;99.90;;;;;;5104750;28;20035;-62
2022/05/13 05:30:36;;;;;;;14.40;4.45;;;13.20;99.90;;;;;;5120941;28;20124;-63
2022/05/13 05:33:02;;;;;;;14.38;4.40;;;13.50;99.90;;;;;;5119150;28;20131;-61
2022/05/13 05:35:28;;;;;;;16.42;4.38;;;13.70;99.90;;;;;;5102362;28;20031;-61
2022/05/13 05:37:55;;;;;;;14.00;3.97;;;14.00;99.90;;;;;;5119496;28;20042;-62
2022/05/13 05:40:21;;;;;;;14.70;4.13;;;14.30;99.90;;;;;;5103783;28;20039;-62
2022/05/13 05:42:48;;;;;;;14.90;3.90;;;14.40;99.90;;;;;;5118422;28;20031;-62
2022/05/13 05:45:16;;;;;;;13.85;4.05;;;14.70;99.90;;;;;;5121777;28;20046;-62
2022/05/13 05:47:41;;;;;;;11.95;3.92;;;15.00;99.90;;;;;;5120815;28;20080;-62
2022/05/13 05:50:10;;;;;;;10.95;3.55;;;15.10;99.90;;;;;;5121274;28;20051;-61
2022/05/13 05:52:36;;;;;;;16.27;4.00;;;15.20;99.90;;;;;;5121235;28;20031;-63
2022/05/13 05:57:59;;;;;;;13.90;3.90;;;14.90;99.90;;;;;;5117970;28;20517;-62
2022/05/13 06:00:24;;;;;;;10.32;3.42;;;14.90;99.90;;;;;;5118023;28;20074;-62
2022/05/13 06:02:50;;;;;;;14.93;3.78;;;15.00;99.90;;;;;;5098167;28;20071;-62
2022/05/13 06:05:16;;;;;;;12.05;2.65;;;15.20;99.90;;;;;;5105573;28;20089;-63
2022/05/13 06:07:41;;;;;;;11.35;2.92;;;15.30;99.90;;;;;;5114456;28;20066;-61
2022/05/13 06:10:07;;;;;;;7.38;2.00;;;15.70;99.90;;;;;;5124887;27;20047;-61
2022/05/13 06:12:33;;;;;;;9.77;2.40;;;15.80;99.90;;;;;;5125709;27;20046;-61
2022/05/13 06:14:59;;;;;;;12.07;3.13;;;15.70;99.90;;;;;;5124625;27;20051;-62
2022/05/13 06:17:24;;;;;;;9.18;2.67;;;15.50;99.90;;;;;;5108125;27;20138;-61
2022/05/13 06:19:50;;;;;;;14.40;3.08;;;15.30;99.90;;;;;;5126390;27;20027;-61
2022/05/13 06:22:16;;;;;;;19.33;3.30;;;15.20;99.90;;;;;;5122524;27;20458;-61
2022/05/13 06:24:41;;;;;;;16.90;2.88;;;15.10;99.90;;;;;;5111515;27;20070;-61
2022/05/13 06:27:09;;;;;;;15.02;2.75;;;15.00;99.90;;;;;;5128210;27;20036;-61
2022/05/13 06:29:36;;;;;;;15.25;3.03;;;14.80;99.90;;;;;;5107416;27;21930;-61
2022/05/13 06:32:02;;;;;;;15.95;3.17;;;14.80;99.90;;;;;;5105397;27;20050;-60
2022/05/13 06:34:28;;;;;;;10.25;2.47;;;14.70;99.90;;;;;;5103783;27;20039;-61
2022/05/13 06:36:54;;;;;;;8.05;2.53;;;14.60;99.90;;;;;;5106616;27;20508;-61
2022/05/13 06:39:19;;;;;;;7.82;2.28;;;14.60;99.90;;;;;;5126895;27;20035;-61
2022/05/13 06:41:46;;;;;;;7.05;2.17;;;14.60;99.90;;;;;;5122690;27;20059;-61
2022/05/13 06:44:13;;;;;;;10.52;2.60;;;14.60;99.90;;;;;;5126015;27;20043;-60
2022/05/13 06:46:39;;;;;;;11.02;2.33;;;14.60;99.90;;;;;;5127463;27;20122;-61
2022/05/13 06:49:07;;;;;;;9.48;2.50;;;14.60;99.90;;;;;;5105733;27;20371;-63
2022/05/13 06:51:34;;;;;;;10.23;2.65;;;14.60;99.90;;;;;;5107182;27;20053;-62
2022/05/13 06:54:03;;;;;;;7.57;2.33;;;14.60;99.90;;;;;;5106287;27;20054;-60
2022/05/13 06:56:31;;;;;;;8.23;2.40;;;14.70;99.90;;;;;;5123956;27;20370;-60
2022/05/13 06:58:56;;;;;;;8.65;2.28;;;14.60;99.90;;;;;;5105529;28;20102;-61
2022/05/13 07:01:22;;;;;;;13.02;2.45;;;14.70;99.90;;;;;;5106604;27;20123;-61
2022/05/13 07:03:54;;;;;;;8.30;2.00;;;14.60;99.90;;;;;;5106272;27;20039;-62
2022/05/13 07:06:21;;;;;;;11.43;2.28;;;14.60;99.90;;;;;;5119145;27;20104;-61
2022/05/13 07:08:49;;;;;;;9.05;2.53;;;14.70;99.90;;;;;;5104946;27;20047;-61
2022/05/13 07:11:15;;;;;;;10.38;2.22;;;15.00;99.90;;;;;;5121705;27;20123;-61
2022/05/13 07:13:41;;;;;;;7.93;2.25;;;15.30;99.90;;;;;;5112275;27;20119;-62
2022/05/13 07:16:06;;;;;;;7.28;1.90;;;15.50;99.90;;;;;;5111410;27;20031;-61
2022/05/13 07:18:32;;;;;;;7.60;2.58;;;15.60;99.90;;;;;;5124458;27;20031;-61
2022/05/13 07:20:58;;;;;;;9.00;2.15;;;15.80;99.90;;;;;;5114912;27;20421;-61
2022/05/13 07:23:23;;;;;;;7.28;1.75;;;16.00;99.90;;;;;;5103442;27;20136;-61
2022/05/13 07:25:49;;;;;;;7.80;2.13;;;16.10;99.90;;;;;;5121444;27;20082;-62
2022/05/13 07:28:15;;;;;;;8.75;2.33;;;16.20;99.90;;;;;;5105514;27;20043;-61
2022/05/13 07:30:41;;;;;;;8.52;2.50;;;15.90;99.90;;;;;;5105513;27;20411;-60
2022/05/13 07:33:06;;;;;;;8.10;1.80;;;15.80;99.90;;;;;;5123677;27;20035;-61
2022/05/13 07:35:32;;;;;;;7.30;1.90;;;15.70;99.90;;;;;;5124538;27;20067;-61
2022/05/13 07:37:58;;;;;;;7.95;1.90;;;15.80;99.90;;;;;;5124726;27;20027;-61
2022/05/13 07:43:08;;;;;;;6.60;1.83;;;15.90;99.90;;;;;;5116714;27;20047;-61
2022/05/13 07:45:35;;;;;;;7.25;1.92;;;15.90;99.90;;;;;;5124034;27;20390;-61
2022/05/13 07:48:02;;;;;;;6.78;1.90;;;15.60;99.90;;;;;;5125093;27;20079;-61
2022/05/13 07:50:29;;;;;;;8.43;1.80;;;15.50;99.90;;;;;;5122553;27;20043;-61
2022/05/13 07:52:55;;;;;;;12.15;2.85;;;15.70;99.90;;;;;;5121411;27;20038;-61
2022/05/13 07:55:20;;;;;;;11.98;2.30;;;16.00;99.90;;;;;;5123033;27;20099;-61
2022/05/13 07:57:48;;;;;;;6.22;1.45;;;16.20;99.90;;;;;;5120042;27;20110;-61
2022/05/13 08:00:26;;;;;;;8.75;2.30;;;16.10;99.90;;;;;;5123660;27;20046;-61
2022/05/13 08:03:01;;;;;;;7.93;2.10;;;16.00;99.90;;;;;;5121420;27;20050;-61
2022/05/13 08:05:30;;;;;;;7.55;1.70;;;16.20;99.90;;;;;;5119886;27;20031;-61
2022/05/13 08:08:09;;;;;;;4.53;1.92;;;16.20;99.90;;;;;;5123761;27;20031;-61
2022/05/13 08:10:36;;;;;;;13.35;2.17;;;16.10;99.90;;;;;;5122753;27;20080;-61
2022/05/13 08:13:03;;;;;;;6.22;1.67;;;15.90;99.90;;;;;;5122017;27;20504;-61
2022/05/13 08:15:29;;;;;;;6.75;2.17;;;16.00;99.90;;;;;;5124311;27;20088;-61
2022/05/13 08:17:55;;;;;;;7.80;1.65;;;16.10;99.90;;;;;;5121538;27;20028;-61
2022/05/13 08:20:21;;;;;;;9.30;2.30;;;16.20;99.90;;;;;;5124710;27;20320;-61
2022/05/13 08:22:47;;;;;;;8.73;2.13;;;16.20;99.90;;;;;;5122655;27;20039;-61
2022/05/13 08:25:13;;;;;;;9.02;2.30;;;16.20;99.90;;;;;;5123641;27;20383;-61
2022/05/13 08:27:39;;;;;;;5.18;1.75;;;16.40;99.90;;;;;;5124234;27;20032;-61
2022/05/13 08:30:05;;;;;;;8.30;1.75;;;16.50;99.90;;;;;;5119430;27;20065;-61
2022/05/13 08:32:31;;;;;;;6.55;1.60;;;16.30;99.90;;;;;;5117230;27;20027;-61
2022/05/13 08:34:57;;;;;;;7.60;1.85;;;16.30;99.90;;;;;;5124022;27;20035;-62
2022/05/13 08:37:23;;;;;;;8.98;2.05;;;16.30;99.90;;;;;;5121621;27;20027;-62
2022/05/13 08:39:48;;;;;;;6.70;2.00;;;16.30;99.90;;;;;;5123681;27;20478;-61
2022/05/13 08:42:37;;;;;;;14.75;2.10;;;16.20;99.90;;;;;;5117782;27;20050;-60
2022/05/13 08:45:07;;;;;;;7.10;1.65;;;16.20;99.90;;;;;;5123580;27;20140;-61
2022/05/13 08:47:53;;;;;;;9.60;2.28;;;16.40;99.90;;;;;;5104110;27;20039;-61
2022/05/13 08:50:42;;;;;;;7.65;1.80;;;16.60;99.90;;;;;;5123042;27;21434;-60
2022/05/13 08:53:34;;;;;;;9.70;1.98;;;16.70;99.90;;;;;;5120733;27;20463;-61
2022/05/13 08:56:07;;;;;;;8.63;2.47;;;16.80;99.90;;;;;;5120693;27;20053;-61
2022/05/13 08:58:58;;;;;;;10.15;2.85;;;16.80;99.90;;;;;;5122390;27;20076;-61
2022/05/13 09:01:32;;;;;;;7.82;2.20;;;17.00;99.90;;;;;;5117738;27;20040;-61
2022/05/13 09:04:09;;;;;;;10.27;2.33;;;17.20;99.90;;;;;;5103624;28;20035;-61
2022/05/13 09:06:50;;;;;;;8.30;1.80;;;17.10;99.90;;;;;;5117122;27;20048;-61
2022/05/13 09:09:16;;;;;;;7.10;1.70;;;16.90;99.90;;;;;;5120453;27;20464;-61
2022/05/13 09:11:48;;;;;;;9.50;1.90;;;16.80;99.90;;;;;;5120118;27;20051;-60
2022/05/13 09:14:25;;;;;;;14.00;2.30;;;16.90;99.90;;;;;;5122745;27;20039;-61
2022/05/13 09:17:09;;;;;;;11.20;2.88;;;16.90;99.90;;;;;;5102245;28;20039;-61
2022/05/13 09:19:36;;;;;;;11.00;2.03;;;16.90;99.90;;;;;;5121690;28;20063;-60
2022/05/13 09:22:07;;;;;;;7.70;1.90;;;16.80;99.90;;;;;;5117571;28;20066;-61
2022/05/13 09:24:32;;;;;;;9.88;2.42;;;16.70;99.90;;;;;;5106011;28;20039;-61
2022/05/13 09:26:58;;;;;;;7.30;2.10;;;16.80;99.90;;;;;;5121236;28;20417;-60
2022/05/13 09:29:24;;;;;;;6.35;1.77;;;16.80;99.90;;;;;;5120711;28;20380;-61
2022/05/13 09:31:55;;;;;;;4.70;1.60;;;16.90;99.90;;;;;;5119323;28;20043;-61
2022/05/13 09:34:27;;;;;;;6.40;1.45;;;16.90;99.90;;;;;;5122544;28;20035;-62
2022/05/13 09:37:03;;;;;;;11.68;2.35;;;16.80;99.90;;;;;;5122748;28;20042;-62
2022/05/13 09:39:35;;;;;;;11.40;2.35;;;16.90;99.90;;;;;;5119649;28;20042;-61
2022/05/13 09:42:33;;;;;;;9.77;2.20;;;16.80;99.90;;;;;;5121144;27;20031;-60
2022/05/13 09:45:20;;;;;;;5.78;2.10;;;17.00;99.90;;;;;;5122971;27;20039;-61
2022/05/13 09:48:07;;;;;;;9.32;2.20;;;17.00;99.90;;;;;;5119649;27;20036;-62
2022/05/13 09:50:38;;;;;;;8.77;1.85;;;17.20;99.90;;;;;;5120897;27;20046;-63
2022/05/13 09:53:33;;;;;;;7.53;2.20;;;17.40;99.90;;;;;;5086762;27;20173;-61
2022/05/13 09:56:01;;;;;;;4.88;1.50;;;17.40;99.90;;;;;;5089669;28;20044;-62
2022/05/13 09:58:48;;;;;;;6.50;1.90;;;17.20;99.90;;;;;;5090551;28;20047;-62
2022/05/13 10:01:20;;;;;;;6.95;1.92;;;17.10;99.90;;;;;;5072889;28;20487;-62
2022/05/13 10:04:08;;;;;;;8.45;2.13;;;17.30;99.90;;;;;;5087908;28;20040;-62
2022/05/13 10:06:35;;;;;;;9.13;2.15;;;17.40;99.90;;;;;;5071699;28;20522;-62
2022/05/13 10:14:40;;;;;;;7.97;2.72;;;17.60;99.90;;;;;;5087662;28;20051;-61
2022/05/13 10:17:14;;;;;;;7.55;2.20;;;17.60;99.90;;;;;;5060511;28;20120;-61
2022/05/13 10:20:03;;;;;;;10.00;2.78;;;17.40;99.90;;;;;;5094187;28;20083;-62
2022/05/13 10:22:29;;;;;;;9.30;2.15;;;17.20;99.90;;;;;;5086632;28;20146;-61
2022/05/13 10:25:11;;;;;;;14.05;2.60;;;17.10;99.90;;;;;;5077914;28;20070;-61
2022/05/13 10:27:39;;;;;;;11.57;3.60;;;17.10;99.90;;;;;;5084295;28;20124;-61
2022/05/13 10:30:13;;;;;;;9.18;2.42;;;17.00;99.90;;;;;;5111895;27;20039;-61
2022/05/13 10:32:58;;;;;;;8.20;2.70;;;17.10;99.90;;;;;;5115366;28;20047;-61
2022/05/13 10:35:29;;;;;;;11.30;2.47;;;17.30;99.90;;;;;;5117257;27;20031;-61
2022/05/13 10:38:21;;;;;;;10.70;3.15;;;17.10;99.90;;;;;;5112094;27;20071;-60
2022/05/13 10:40:48;;;;;;;8.82;2.40;;;17.00;99.90;;;;;;5111192;27;20436;-60
2022/05/13 10:43:17;;;;;;;5.95;2.22;;;17.10;99.90;;;;;;5112289;27;20148;-60
2022/05/13 10:45:44;;;;;;;7.40;1.85;;;17.10;99.90;;;;;;5130175;27;20031;-60
2022/05/13 10:48:23;;;;;;;8.10;2.22;;;16.90;99.90;;;;;;5123164;27;20096;-60
2022/05/13 10:51:04;;;;;;;5.47;1.80;;;16.80;99.90;;;;;;5103553;28;20059;-59
2022/05/13 10:54:10;;;;;;;5.95;2.20;;;16.80;99.90;;;;;;5095626;27;20134;-59
2022/05/13 10:56:55;;;;;;;12.00;3.50;;;16.90;99.90;;;;;;5124771;27;20041;-60
2022/05/13 10:59:57;;;;;;;9.13;3.10;;;16.90;99.90;;;;;;5104728;27;20340;-60
2022/05/13 11:03:12;;;;;;;9.32;2.60;;;17.10;99.90;;;;;;5105593;27;20409;-61
2022/05/13 11:05:38;;;;;;;;;;;17.20;99.90;;;;;;5092183;27;20131;-61
2022/05/13 11:08:21;;;;;;;14.77;3.15;;;17.10;99.90;;;;;;5123225;27;20402;-60
2022/05/13 11:11:02;;;;;;;13.20;2.77;;;17.10;99.90;;;;;;5099111;27;20367;-61
2022/05/13 11:13:52;;;;;;;9.57;2.80;;;17.10;99.90;;;;;;5120136;27;20039;-60
2022/05/13 11:16:39;;;;;;;12.50;3.33;;;17.10;99.90;;;;;;5123328;27;20040;-60
2022/05/13 11:19:23;;;;;;;7.28;2.33;;;17.10;99.90;;;;;;5099954;27;20040;-59
2022/05/13 11:22:08;;;;;;;16.37;3.07;;;17.40;99.90;;;;;;5117577;27;20362;-60
2022/05/13 11:28:26;;;;;;;11.82;2.75;;;17.50;99.90;;;;;;5119682;27;20558;-60
2022/05/13 11:31:18;;;;;;;9.75;2.38;;;17.40;99.90;;;;;;5114114;27;20443;-61
2022/05/13 11:34:05;;;;;;;8.60;2.30;;;17.30;99.90;;;;;;5110129;27;20035;-61
2022/05/13 11:36:44;;;;;;;7.63;2.30;;;17.40;99.90;;;;;;5117939;27;20037;-61
2022/05/13 11:39:38;;;;;;;9.18;2.30;;;17.40;99.90;;;;;;5116532;27;20050;-60
2022/05/13 11:42:31;;;;;;;8.50;2.47;;;17.40;99.90;;;;;;5116251;27;20057;-60
2022/05/13 11:45:21;;;;;;;7.88;2.05;;;17.60;99.90;;;;;;5112651;27;20040;-61
2022/05/13 11:48:05;;;;;;;8.50;2.03;;;17.70;99.90;;;;;;5102422;27;20035;-60
2022/05/13 11:50:31;;;;;;;9.82;2.22;;;17.60;99.90;;;;;;5125909;27;20367;-60
2022/05/13 11:52:59;;;;;;;8.05;2.22;;;17.50;99.90;;;;;;5102978;28;20074;-60
2022/05/13 11:55:43;;;;;;;10.57;2.42;;;17.30;99.90;;;;;;5115168;27;20110;-61
2022/05/13 11:58:29;;;;;;;;;;;17.40;99.90;;;;;;5119532;27;20203;-60
2022/05/13 12:00:54;;;;;;;11.82;2.30;;;17.50;99.90;;;;;;5103583;27;19915;-60
2022/05/13 12:03:20;;;;;;;9.65;2.30;;;17.50;99.90;;;;;;5121946;27;20116;-61
2022/05/13 12:05:52;;;;;;;7.88;2.20;;;17.50;99.90;;;;;;5106686;27;20031;-60
2022/05/13 12:08:30;;;;;;;9.23;2.10;;;17.70;99.90;;;;;;5122560;27;20113;-60
2022/05/13 12:11:02;;;;;;;13.77;2.38;;;17.70;99.90;;;;;;5120178;27;20036;-60
2022/05/13 12:13:56;;;;;;;9.75;2.30;;;17.80;99.90;;;;;;5120282;27;20406;-60
2022/05/13 12:16:55;;;;;;;7.22;2.10;;;18.00;99.90;;;;;;5120028;27;20340;-62
2022/05/13 12:19:31;;;;;;;5.82;2.40;;;18.00;99.90;;;;;;5123461;27;20063;-60
2022/05/13 12:22:25;;;;;;;7.22;1.95;;;18.10;99.90;;;;;;5121005;27;20135;-61
2022/05/13 12:25:07;;;;;;;10.27;2.22;;;18.30;99.90;;;;;;5120507;27;20064;-61
2022/05/13 12:27:44;;;;;;;8.52;2.22;;;18.70;99.90;;;;;;5106907;27;20039;-60
2022/05/13 12:30:31;;;;;;;13.30;2.40;;;18.80;99.90;;;;;;5100775;27;20044;-61
2022/05/13 12:33:20;;;;;;;5.88;1.88;;;18.80;99.90;;;;;;5125334;27;20035;-60
2022/05/13 12:39:13;;;;;;;6.00;1.60;;;18.70;99.90;;;;;;5109793;27;20035;-60
2022/05/13 12:41:42;;;;;;;10.30;2.42;;;18.70;99.80;;;;;;5102893;27;20050;-60
2022/05/13 12:44:14;;;;;;;10.10;2.35;;;18.60;99.90;;;;;;5122111;27;20405;-60
2022/05/13 12:46:48;;;;;;;9.05;2.58;;;18.70;99.90;;;;;;5121040;27;20035;-60
2022/05/13 12:49:45;;;;;;;11.02;2.58;;;18.70;99.90;;;;;;5121516;27;20046;-60
2022/05/13 12:52:15;;;;;;;6.50;2.03;;;18.70;99.90;;;;;;5120683;27;20054;-60
2022/05/13 12:54:50;;;;;;;5.53;1.65;;;18.80;99.20;;;;;;5122247;27;20118;-60
2022/05/13 12:57:22;;;;;;;7.18;2.53;;;18.70;99.20;;;;;;5122255;27;20089;-61
2022/05/13 12:59:54;;;;;;;7.68;1.83;;;18.60;99.90;;;;;;5116810;27;20470;-60
2022/05/13 13:02:22;;;;;;;7.07;1.98;;;18.60;99.00;;;;;;5120532;27;20072;-60
2022/05/13 13:05:14;;;;;;;7.07;1.65;;;18.60;99.90;;;;;;5124352;27;20093;-60
2022/05/13 13:07:39;;;;;;;6.20;1.90;;;18.30;99.90;;;;;;5122796;27;20062;-60
2022/05/13 13:10:05;;;;;;;10.88;2.60;;;18.20;99.90;;;;;;5122145;27;20107;-61
2022/05/13 13:12:43;;;;;;;7.00;1.95;;;18.20;99.90;;;;;;5123626;27;20064;-60
2022/05/13 13:15:23;;;;;;;10.27;1.73;;;18.00;99.80;;;;;;5118837;27;20043;-60
2022/05/13 13:17:58;;;;;;;8.38;2.05;;;18.10;99.90;;;;;;5114935;27;20483;-61
2022/05/13 13:20:27;;;;;;;8.70;2.10;;;18.20;99.90;;;;;;5105201;27;20039;-60
2022/05/13 13:22:58;;;;;;;7.85;1.77;;;18.10;99.90;;;;;;5100573;28;20084;-60
2022/05/13 13:25:34;;;;;;;7.22;1.85;;;18.10;99.70;;;;;;5118633;28;20464;-60
2022/05/13 13:28:11;;;;;;;7.45;1.98;;;18.20;99.90;;;;;;5102667;28;20050;-61
2022/05/13 13:30:44;;;;;;;11.15;2.33;;;18.20;99.90;;;;;;5099701;28;20070;-61